Pine Level, Alabama
Current Conditions -  °F | °C
As of 1:53 PM on Monday 26 Jan 2015 (Local Time) from KMGM Reporting Station
Broken Clouds Broken Clouds  
Wind Chill: 44°   Ceiling: 3300
Heat Index: 49°   Visibility: 10mi
Dew Point: 34°   Wind: 14mph
Humidity: 56%   Direction: 300°WNW
Pressure: 29.99"   Gusts: 23mph
Location:  32.07°N, 86.06°W
Report Text: KMGM 261953Z 30012G20KT 10SM SCT029 BKN033 09/01 A2999 RMK AO2 SLP155 T00940011
Loading
Personal Weather Stations






























Interactive Weather Map New forecast layout! Learn more

10-Day Weather Forecast

Advertisements
Track Severe Weather on mobile